Time;durP1;ratioP1;P1;durP2;ratioP2;P2;SDS_P1;SDS_P2;PMS_P1;PMS_P2;Temp;Humidity;BMP_temperature;BMP_pressure;BME280_temperature;BME280_humidity;BME280_pressure;Samples;Min_cycle;Max_cycle;Signal;HPM_P1;HPM_P2
2022/10/30 00:00:37;;;;;;;;;;;;;;;10.07;93.19;97982.25;5091717;28;20403;-64
2022/10/30 00:03:03;;;;;;;;;;;;;;;10.08;93.06;97973.72;5105995;28;19934;-64
2022/10/30 00:05:29;;;;;;;;;;;;;;;10.12;93.18;97976.63;5106052;28;20030;-65
2022/10/30 00:07:55;;;;;;;;;;;;;;;10.15;92.88;97967.00;5107739;28;20391;-64
2022/10/30 00:10:21;;;;;;;;;;;;;;;10.17;92.71;97967.50;5106960;28;19932;-64
2022/10/30 00:12:46;;;;;;;;;;;;;;;10.17;92.86;97956.56;5110171;28;19934;-65
2022/10/30 00:15:12;;;;;;;;;;;;;;;10.16;92.57;97966.66;5110557;28;19934;-66
2022/10/30 00:17:39;;;;;;;;;;;;;;;10.18;92.90;97960.91;5109947;28;19957;-64
2022/10/30 00:20:06;;;;;;;;;;;;;;;10.18;92.63;97958.97;5108136;28;19927;-64
2022/10/30 00:22:31;;;;;;;;;;;;;;;10.19;92.78;97954.31;5092045;28;19934;-65
2022/10/30 00:24:57;;;;;;;;;;;;;;;10.21;92.67;97958.31;5107230;28;20177;-64
2022/10/30 00:27:23;;;;;;;;;;;;;;;10.25;92.51;97938.59;5107874;28;20033;-64
2022/10/30 00:29:49;;;;;;;;;;;;;;;10.25;92.29;97936.66;5108088;28;19936;-64
2022/10/30 00:32:14;;;;;;;;;;;;;;;10.28;92.17;97937.94;5108212;28;20026;-64
2022/10/30 00:34:43;;;;;;;;;;;;;;;10.30;92.03;97938.44;5109445;28;20320;-65
2022/10/30 00:37:09;;;;;;;;;;;;;;;10.30;92.20;97922.88;5110150;28;19932;-64
2022/10/30 00:39:37;;;;;;;;;;;;;;;10.30;91.68;97919.31;5105727;28;19981;-64
2022/10/30 00:42:03;;;;;;;;;;;;;;;10.30;91.68;97922.03;5090403;28;19932;-65
2022/10/30 00:44:34;;;;;;;;;;;;;;;10.31;91.45;97921.75;5088902;28;19974;-64
2022/10/30 00:47:05;;;;;;;;;;;;;;;10.33;91.45;97918.66;5087989;28;19949;-65
2022/10/30 00:49:33;;;;;;;;;;;;;;;10.33;91.36;97915.94;5088260;28;19935;-64
2022/10/30 00:52:02;;;;;;;;;;;;;;;10.34;91.40;97915.63;5089784;28;20023;-67
2022/10/30 00:54:28;;;;;;;;;;;;;;;10.30;91.06;97914.66;5085541;28;19928;-66
2022/10/30 00:56:55;;;;;;;;;;;;;;;10.24;91.45;97902.28;5087472;28;20321;-66
2022/10/30 00:59:22;;;;;;;;;;;;;;;10.21;91.52;97902.91;5087065;28;20389;-66
2022/10/30 01:01:49;;;;;;;;;;;;;;;10.17;91.41;97904.69;5088353;28;20069;-67
2022/10/30 01:04:15;;;;;;;;;;;;;;;10.10;91.70;97896.94;5086167;28;20421;-66
2022/10/30 01:06:43;;;;;;;;;;;;;;;10.08;91.82;97912.84;5087703;28;19935;-66
2022/10/30 01:09:10;;;;;;;;;;;;;;;10.07;91.78;97890.19;5069330;28;19940;-66
2022/10/30 01:11:36;;;;;;;;;;;;;;;10.07;91.65;97900.31;5090644;28;19935;-66
2022/10/30 01:14:04;;;;;;;;;;;;;;;10.09;91.41;97889.88;5089300;28;20112;-66
2022/10/30 01:16:38;;;;;;;;;;;;;;;10.07;91.38;97892.13;5108983;28;20472;-67
2022/10/30 01:19:17;;;;;;;;;;;;;;;10.08;91.42;97886.34;5107937;28;19928;-66
2022/10/30 01:21:49;;;;;;;;;;;;;;;10.11;91.35;97887.63;5105003;28;20421;-65
2022/10/30 01:24:25;;;;;;;;;;;;;;;10.17;90.90;97889.09;5068640;28;19932;-67
2022/10/30 01:26:56;;;;;;;;;;;;;;;10.21;90.84;97886.53;5102974;28;20429;-66
2022/10/30 01:29:30;;;;;;;;;;;;;;;10.25;90.46;97881.22;5105708;28;19955;-67
2022/10/30 01:32:02;;;;;;;;;;;;;;;10.27;90.45;97887.19;5108435;28;19928;-67
2022/10/30 01:34:33;;;;;;;;;;;;;;;10.29;90.12;97872.06;5107305;28;19993;-66
2022/10/30 01:37:01;;;;;;;;;;;;;;;10.29;90.07;97880.25;5104476;28;19927;-65
2022/10/30 01:39:32;;;;;;;;;;;;;;;10.33;89.78;97885.88;5107475;28;19935;-65
2022/10/30 01:41:58;;;;;;;;;;;;;;;10.37;89.58;97884.13;5106924;28;19966;-64
2022/10/30 01:44:26;;;;;;;;;;;;;;;10.39;89.41;97872.88;5087339;28;19971;-67
2022/10/30 01:47:01;;;;;;;;;;;;;;;10.42;89.48;97877.72;5084554;28;19932;-66
2022/10/30 01:49:41;;;;;;;;;;;;;;;10.44;89.36;97881.75;5085799;28;19928;-67
2022/10/30 01:52:12;;;;;;;;;;;;;;;10.43;89.09;97874.69;5087351;28;20422;-68
2022/10/30 01:54:44;;;;;;;;;;;;;;;10.43;89.11;97880.16;5068109;28;19935;-68
2022/10/30 01:57:14;;;;;;;;;;;;;;;10.41;89.42;97885.13;5068813;28;20415;-66
2022/10/30 01:59:43;;;;;;;;;;;;;;;10.44;89.04;97875.47;5085656;28;19939;-66
2022/10/30 02:02:09;;;;;;;;;;;;;;;10.46;88.53;97871.31;5086516;28;20034;-66
2022/10/30 02:04:35;;;;;;;;;;;;;;;10.47;88.54;97872.91;5085468;28;19967;-66
2022/10/30 02:07:01;;;;;;;;;;;;;;;10.47;88.20;97880.31;5089204;28;19963;-66
2022/10/30 02:09:27;;;;;;;;;;;;;;;10.47;88.02;97877.59;5105430;28;19927;-66
2022/10/30 02:11:55;;;;;;;;;;;;;;;10.46;87.96;97873.25;5107477;28;19971;-67
2022/10/30 02:14:23;;;;;;;;;;;;;;;10.48;87.87;97868.25;5086711;28;20156;-67
2022/10/30 02:16:50;;;;;;;;;;;;;;;10.46;87.67;97873.25;5091178;28;19935;-65
2022/10/30 02:19:18;;;;;;;;;;;;;;;10.45;87.51;97871.63;5080376;28;20481;-64
2022/10/30 02:21:46;;;;;;;;;;;;;;;10.42;87.30;97870.34;5070511;28;19967;-64
2022/10/30 02:24:11;;;;;;;;;;;;;;;10.43;86.98;97876.59;5069192;28;19989;-64
2022/10/30 02:26:37;;;;;;;;;;;;;;;10.39;87.21;97878.34;5086393;28;19928;-65
2022/10/30 02:29:03;;;;;;;;;;;;;;;10.36;87.23;97869.66;5086314;28;19928;-65
2022/10/30 02:31:29;;;;;;;;;;;;;;;10.36;86.94;97885.25;5087580;28;19959;-62
2022/10/30 02:33:55;;;;;;;;;;;;;;;10.37;86.28;97878.66;5088402;28;19935;-64
2022/10/30 02:36:20;;;;;;;;;;;;;;;10.40;85.73;97883.50;5099889;28;20455;-64
2022/10/30 02:38:48;;;;;;;;;;;;;;;10.35;85.98;97879.00;5096658;28;19928;-64
2022/10/30 02:41:14;;;;;;;;;;;;;;;10.29;86.34;97877.53;5085333;28;19928;-64
2022/10/30 02:43:41;;;;;;;;;;;;;;;10.25;85.91;97882.03;5100056;28;20457;-67
2022/10/30 02:46:07;;;;;;;;;;;;;;;10.24;85.06;97883.16;5108299;28;19936;-67
2022/10/30 02:48:34;;;;;;;;;;;;;;;10.28;85.44;97880.59;5085277;28;19974;-67
2022/10/30 02:51:00;;;;;;;;;;;;;;;10.28;84.60;97891.50;5087671;28;20466;-67
2022/10/30 02:53:27;;;;;;;;;;;;;;;10.27;84.38;97882.50;5084323;28;19958;-66
2022/10/30 02:55:56;;;;;;;;;;;;;;;10.26;83.87;97885.56;5086938;28;20030;-67
2022/10/30 02:58:22;;;;;;;;;;;;;;;10.19;83.57;97881.38;5084188;28;20094;-67
2022/10/30 03:00:48;;;;;;;;;;;;;;;10.14;83.74;97869.78;5098710;28;19939;-65
2022/10/30 03:03:14;;;;;;;;;;;;;;;10.12;83.64;97866.59;5103017;28;19974;-67
2022/10/30 03:05:40;;;;;;;;;;;;;;;10.08;83.32;97867.22;5105128;28;19963;-67
2022/10/30 03:08:06;;;;;;;;;;;;;;;10.07;82.98;97867.56;5107853;28;20030;-67
2022/10/30 03:10:31;;;;;;;;;;;;;;;10.05;82.79;97867.88;5086190;28;19932;-66
2022/10/30 03:12:59;;;;;;;;;;;;;;;10.01;82.71;97864.16;5103765;28;19927;-67
2022/10/30 03:15:25;;;;;;;;;;;;;;;9.98;82.53;97875.69;5104315;28;19989;-67
2022/10/30 03:17:51;;;;;;;;;;;;;;;9.95;82.51;97876.34;5102651;28;20411;-68
2022/10/30 03:20:17;;;;;;;;;;;;;;;9.92;82.09;97863.34;5111778;28;19927;-64
2022/10/30 03:22:43;;;;;;;;;;;;;;;9.87;82.29;97864.28;5107632;28;19927;-64
2022/10/30 03:25:08;;;;;;;;;;;;;;;9.77;82.44;97859.94;5109868;28;20046;-64
2022/10/30 03:27:34;;;;;;;;;;;;;;;9.64;82.68;97874.50;5092507;28;20048;-64
2022/10/30 03:30:01;;;;;;;;;;;;;;;9.54;82.54;97863.88;5091994;28;19936;-64
2022/10/30 03:32:29;;;;;;;;;;;;;;;9.44;82.57;97881.31;5106204;28;20700;-64
2022/10/30 03:34:54;;;;;;;;;;;;;;;9.34;82.82;97860.56;5108555;28;19972;-64
2022/10/30 03:37:20;;;;;;;;;;;;;;;9.29;82.37;97875.16;5108334;28;19932;-64
2022/10/30 03:39:46;;;;;;;;;;;;;;;9.28;81.90;97859.91;5106951;27;20414;-64
2022/10/30 03:42:12;;;;;;;;;;;;;;;9.33;82.16;97878.06;5106737;28;19935;-64
2022/10/30 03:44:37;;;;;;;;;;;;;;;9.44;81.93;97876.66;5108804;28;19967;-64
2022/10/30 03:47:05;;;;;;;;;;;;;;;9.53;81.90;97873.97;5107689;28;20018;-64
2022/10/30 03:49:36;;;;;;;;;;;;;;;9.55;81.47;97877.19;5106074;28;19935;-64
2022/10/30 03:52:07;;;;;;;;;;;;;;;9.50;80.60;97890.97;5099043;28;20019;-64
2022/10/30 03:54:33;;;;;;;;;;;;;;;9.48;80.27;97893.22;5090700;28;20392;-64
2022/10/30 03:56:58;;;;;;;;;;;;;;;9.43;80.98;97880.50;5087640;28;19928;-65
2022/10/30 03:59:28;;;;;;;;;;;;;;;9.33;81.09;97887.06;5072111;28;19928;-64
2022/10/30 04:02:24;;;;;;;;;;;;;;;9.24;81.49;97899.03;5090757;28;19928;-64
2022/10/30 04:04:49;;;;;;;;;;;;;;;9.21;80.94;97903.19;5069496;28;19932;-64
2022/10/30 04:07:15;;;;;;;;;;;;;;;9.14;81.19;97884.53;5086732;28;19928;-64
2022/10/30 04:09:41;;;;;;;;;;;;;;;9.04;81.43;97891.06;5086726;28;20022;-67
2022/10/30 04:12:07;;;;;;;;;;;;;;;8.96;81.48;97883.63;5088596;28;19944;-65
2022/10/30 04:14:32;;;;;;;;;;;;;;;8.86;82.06;97876.50;5077016;28;19928;-66
2022/10/30 04:16:58;;;;;;;;;;;;;;;8.82;81.79;97880.16;5098395;28;19928;-66
2022/10/30 04:19:25;;;;;;;;;;;;;;;8.63;82.30;97872.97;5088830;28;19938;-65
2022/10/30 04:21:51;;;;;;;;;;;;;;;8.80;82.18;97896.81;5087253;28;19927;-64
2022/10/30 04:24:17;;;;;;;;;;;;;;;8.93;81.25;97887.78;5071009;28;19989;-64
2022/10/30 04:26:46;;;;;;;;;;;;;;;8.93;80.57;97890.50;5078174;28;19932;-64
2022/10/30 04:29:11;;;;;;;;;;;;;;;8.90;80.22;97893.88;5088170;28;19938;-63
2022/10/30 04:31:37;;;;;;;;;;;;;;;8.91;79.98;97909.09;5087769;28;19967;-64
2022/10/30 04:34:03;;;;;;;;;;;;;;;8.90;79.87;97893.03;5087600;28;19934;-64
2022/10/30 04:36:32;;;;;;;;;;;;;;;8.88;79.73;97893.34;5088729;28;19973;-64
2022/10/30 04:38:59;;;;;;;;;;;;;;;8.88;79.04;97882.44;5071909;28;20019;-64
2022/10/30 04:41:26;;;;;;;;;;;;;;;8.90;78.82;97884.88;5091112;28;19935;-64
2022/10/30 04:44:00;;;;;;;;;;;;;;;8.94;78.48;97886.66;5104932;28;19938;-64
2022/10/30 04:46:30;;;;;;;;;;;;;;;9.00;77.97;97865.53;5084781;28;19928;-64
2022/10/30 04:49:02;;;;;;;;;;;;;;;9.07;77.93;97860.44;5105419;28;19981;-66
2022/10/30 04:51:27;;;;;;;;;;;;;;;9.12;77.52;97870.41;5108629;28;19931;-64
2022/10/30 04:53:55;;;;;;;;;;;;;;;9.15;77.32;97875.22;5108195;28;19927;-65
2022/10/30 04:56:21;;;;;;;;;;;;;;;9.08;77.55;97874.88;5110484;28;19935;-64
2022/10/30 04:58:47;;;;;;;;;;;;;;;8.96;77.85;97871.91;5106815;28;19928;-65
2022/10/30 05:01:13;;;;;;;;;;;;;;;8.84;78.05;97869.78;5107494;28;19928;-66
2022/10/30 05:03:39;;;;;;;;;;;;;;;8.73;78.11;97866.47;5092321;28;19927;-66
2022/10/30 05:06:15;;;;;;;;;;;;;;;8.66;78.17;97885.97;5082328;28;19928;-66
2022/10/30 05:08:41;;;;;;;;;;;;;;;8.58;78.55;97867.66;5103111;28;19928;-66
2022/10/30 05:11:18;;;;;;;;;;;;;;;8.53;78.98;97873.22;5085268;28;19936;-66
2022/10/30 05:13:44;;;;;;;;;;;;;;;8.52;79.18;97872.41;5085826;28;19943;-67
2022/10/30 05:16:10;;;;;;;;;;;;;;;8.55;79.05;97882.69;5085597;28;19932;-66
2022/10/30 05:18:35;;;;;;;;;;;;;;;8.57;78.54;97887.84;5096160;28;19928;-66
2022/10/30 05:21:02;;;;;;;;;;;;;;;8.60;78.39;97871.69;5093474;28;20294;-66
2022/10/30 05:23:27;;;;;;;;;;;;;;;8.66;78.28;97875.06;5092931;28;19928;-67
2022/10/30 05:25:53;;;;;;;;;;;;;;;8.67;77.87;97884.88;5087427;28;20049;-67
2022/10/30 05:28:20;;;;;;;;;;;;;;;8.74;77.43;97885.25;5085756;28;19959;-67
2022/10/30 05:30:52;;;;;;;;;;;;;;;8.79;77.56;97881.59;5092734;28;19938;-64
2022/10/30 05:33:36;;;;;;;;;;;;;;;8.69;76.66;97868.22;5108467;28;19939;-65
2022/10/30 05:36:02;;;;;;;;;;;;;;;8.58;76.79;97906.56;5107842;28;19933;-64
2022/10/30 05:38:28;;;;;;;;;;;;;;;8.54;77.56;97891.97;5087410;28;19942;-64
2022/10/30 05:40:54;;;;;;;;;;;;;;;8.61;77.80;97877.94;5103593;28;20451;-65
2022/10/30 05:43:21;;;;;;;;;;;;;;;8.77;76.70;97892.78;5087663;28;19931;-65
2022/10/30 05:45:47;;;;;;;;;;;;;;;8.90;75.57;97874.78;5108868;28;20382;-64
2022/10/30 05:48:13;;;;;;;;;;;;;;;8.94;75.03;97883.13;5106753;28;20421;-64
2022/10/30 05:50:43;;;;;;;;;;;;;;;8.87;75.34;97893.66;5090919;28;19977;-64
2022/10/30 05:53:20;;;;;;;;;;;;;;;8.77;75.72;97887.34;5084444;28;19970;-64
2022/10/30 05:55:46;;;;;;;;;;;;;;;8.71;76.07;97904.13;5086477;28;19936;-64
2022/10/30 05:58:18;;;;;;;;;;;;;;;8.73;76.40;97889.09;5067281;28;19928;-64
2022/10/30 06:00:46;;;;;;;;;;;;;;;8.73;75.29;97904.63;5085524;28;19928;-66
2022/10/30 06:03:16;;;;;;;;;;;;;;;8.55;75.36;97874.50;5079605;28;19928;-64
2022/10/30 06:05:43;;;;;;;;;;;;;;;8.67;75.03;97938.56;5099618;28;20307;-64
2022/10/30 06:08:09;;;;;;;;;;;;;;;8.48;72.46;97940.28;5087466;28;19974;-65
2022/10/30 06:10:35;;;;;;;;;;;;;;;8.39;73.53;97904.00;5086439;28;20388;-64
2022/10/30 06:13:09;;;;;;;;;;;;;;;8.43;72.34;97905.00;5088387;28;19943;-65
2022/10/30 06:15:57;;;;;;;;;;;;;;;8.62;70.75;97915.78;5099598;28;19932;-64
2022/10/30 06:18:25;;;;;;;;;;;;;;;8.67;68.55;97911.31;5097625;28;19973;-64
2022/10/30 06:20:53;;;;;;;;;;;;;;;8.64;66.90;97927.16;5108872;28;19932;-64
2022/10/30 06:23:36;;;;;;;;;;;;;;;8.67;65.46;97924.94;5087057;28;19967;-64
2022/10/30 06:26:07;;;;;;;;;;;;;;;8.69;64.79;97919.97;5069869;28;19928;-64
2022/10/30 06:28:42;;;;;;;;;;;;;;;8.66;63.24;97921.38;5065677;28;19928;-64
2022/10/30 06:31:09;;;;;;;;;;;;;;;8.59;63.30;97930.00;5083096;28;20427;-64
2022/10/30 06:33:36;;;;;;;;;;;;;;;8.50;62.54;97943.53;5085018;28;19978;-64
2022/10/30 06:36:02;;;;;;;;;;;;;;;8.37;59.29;97936.97;5101510;28;19931;-64
2022/10/30 06:38:28;;;;;;;;;;;;;;;8.27;59.05;97933.69;5065395;28;19928;-65
2022/10/30 06:40:55;;;;;;;;;;;;;;;8.22;58.06;97927.22;5084827;28;19977;-65
2022/10/30 06:43:39;;;;;;;;;;;;;;;8.16;56.32;97943.97;5085848;28;20446;-64
2022/10/30 06:46:20;;;;;;;;;;;;;;;8.17;55.87;97913.72;5075074;28;19934;-66
2022/10/30 06:48:46;;;;;;;;;;;;;;;8.21;55.12;97936.50;5086567;28;19936;-66
2022/10/30 06:51:13;;;;;;;;;;;;;;;8.26;53.89;97932.84;5083567;28;19985;-66
2022/10/30 06:53:39;;;;;;;;;;;;;;;8.21;53.46;97932.97;5067361;28;19928;-66
2022/10/30 06:56:24;;;;;;;;;;;;;;;8.08;53.72;97949.00;5084458;28;19928;-64
2022/10/30 06:59:08;;;;;;;;;;;;;;;8.02;54.55;97952.97;5084590;28;19967;-64
2022/10/30 07:01:55;;;;;;;;;;;;;;;7.96;54.68;97951.47;5085573;28;19970;-64
2022/10/30 07:04:24;;;;;;;;;;;;;;;7.94;55.77;97956.38;5082882;28;19935;-64
2022/10/30 07:06:49;;;;;;;;;;;;;;;8.06;56.07;97970.28;5083832;28;19928;-64
2022/10/30 07:09:17;;;;;;;;;;;;;;;8.45;55.58;97951.78;5087016;28;19935;-64
2022/10/30 07:11:44;;;;;;;;;;;;;;;8.69;55.12;97955.41;5085534;28;19927;-64
2022/10/30 07:14:19;;;;;;;;;;;;;;;8.78;54.90;97948.13;5081954;28;20361;-64
2022/10/30 07:16:54;;;;;;;;;;;;;;;8.77;55.28;97960.13;5067849;28;19928;-64
2022/10/30 07:19:20;;;;;;;;;;;;;;;8.71;55.64;97956.72;5087351;28;19928;-64
2022/10/30 07:21:46;;;;;;;;;;;;;;;8.45;56.47;97954.50;5084334;28;19932;-64
2022/10/30 07:24:12;;;;;;;;;;;;;;;8.29;57.55;97954.06;5065259;28;20341;-64
2022/10/30 07:26:47;;;;;;;;;;;;;;;8.20;57.06;97945.78;5066797;28;19935;-64
2022/10/30 07:29:39;;;;;;;;;;;;;;;8.05;57.59;97932.50;5083179;28;19973;-64
2022/10/30 07:32:32;;;;;;;;;;;;;;;8.00;58.04;97957.09;5086682;28;19928;-64
2022/10/30 07:35:11;;;;;;;;;;;;;;;8.04;58.02;97944.47;5082796;28;19939;-64
2022/10/30 07:38:04;;;;;;;;;;;;;;;8.31;56.73;97945.56;5067591;28;19928;-66
2022/10/30 07:40:40;;;;;;;;;;;;;;;8.90;55.76;97942.91;5068317;28;20350;-65
2022/10/30 07:43:23;;;;;;;;;;;;;;;9.60;52.61;97926.19;5086286;28;19928;-66
2022/10/30 07:46:01;;;;;;;;;;;;;;;9.81;50.91;97919.34;5083953;28;19928;-66
2022/10/30 07:48:45;;;;;;;;;;;;;;;10.03;49.58;97924.72;5082587;28;19928;-66
2022/10/30 07:51:32;;;;;;;;;;;;;;;9.98;49.80;97918.59;5085292;28;19932;-66
2022/10/30 07:53:58;;;;;;;;;;;;;;;9.96;50.00;97921.63;5081450;28;19932;-64
2022/10/30 07:56:24;;;;;;;;;;;;;;;9.95;50.05;97911.84;5082313;28;20416;-64
2022/10/30 07:58:53;;;;;;;;;;;;;;;10.05;49.61;97911.56;5079548;28;19994;-65
2022/10/30 08:01:38;;;;;;;;;;;;;;;9.75;49.81;97900.38;4737965;27;9999871;-66
2022/10/30 08:04:26;;;;;;;;;;;;;;;9.50;50.37;97935.41;5093333;28;20316;-66
2022/10/30 08:06:59;;;;;;;;;;;;;;;9.02;52.12;97906.09;5085841;28;20395;-66
2022/10/30 08:09:25;;;;;;;;;;;;;;;8.89;52.20;97924.16;5103625;28;19927;-66
2022/10/30 08:11:51;;;;;;;;;;;;;;;8.61;52.97;97925.06;5101687;28;20304;-66
2022/10/30 08:14:16;;;;;;;;;;;;;;;8.65;53.54;97930.69;5066562;28;20042;-66
2022/10/30 08:16:43;;;;;;;;;;;;;;;8.63;53.19;97932.91;5086101;28;20459;-66
2022/10/30 08:19:08;;;;;;;;;;;;;;;8.41;53.43;97923.56;5084052;28;19967;-66
2022/10/30 08:21:34;;;;;;;;;;;;;;;8.19;54.47;97908.75;5084360;28;19928;-66
2022/10/30 08:24:16;;;;;;;;;;;;;;;8.12;53.78;97934.78;5072743;28;19928;-66
2022/10/30 08:26:45;;;;;;;;;;;;;;;8.05;54.10;97911.50;5103824;28;20021;-66
2022/10/30 08:29:11;;;;;;;;;;;;;;;7.98;54.92;97930.19;5102286;28;19952;-66
2022/10/30 08:31:38;;;;;;;;;;;;;;;7.96;54.78;97943.28;5085251;28;20322;-66
2022/10/30 08:34:21;;;;;;;;;;;;;;;8.01;54.72;97915.16;5094368;28;19932;-66
2022/10/30 08:36:54;;;;;;;;;;;;;;;8.00;54.73;97932.59;5083170;28;19994;-66
2022/10/30 08:39:22;;;;;;;;;;;;;;;8.01;55.15;97918.69;5081853;28;19979;-66
2022/10/30 08:42:11;;;;;;;;;;;;;;;8.09;55.55;97925.34;5082435;28;19928;-64
2022/10/30 08:44:42;;;;;;;;;;;;;;;8.03;55.79;97916.47;5083438;28;20599;-65
2022/10/30 08:47:26;;;;;;;;;;;;;;;8.02;56.28;97911.31;5084244;28;20307;-64
2022/10/30 08:49:52;;;;;;;;;;;;;;;8.02;56.22;97920.28;5082672;28;19939;-64
2022/10/30 08:52:20;;;;;;;;;;;;;;;8.06;56.42;97910.41;5082160;28;19935;-64
2022/10/30 08:54:53;;;;;;;;;;;;;;;8.21;55.66;97905.75;5049618;28;19939;-64
2022/10/30 08:57:21;;;;;;;;;;;;;;;8.22;55.95;97918.25;5083710;28;19938;-64
2022/10/30 08:59:51;;;;;;;;;;;;;;;8.26;56.19;97913.00;5102053;28;19981;-64
2022/10/30 09:02:46;;;;;;;;;;;;;;;8.37;55.94;97914.41;5106959;28;19932;-64
2022/10/30 09:05:30;;;;;;;;;;;;;;;8.33;55.90;97902.50;5106436;28;20337;-64
2022/10/30 09:08:16;;;;;;;;;;;;;;;8.14;55.99;97906.16;5086431;28;20020;-69
2022/10/30 09:11:04;;;;;;;;;;;;;;;8.08;56.59;97893.78;5085144;28;19927;-66
2022/10/30 09:13:30;;;;;;;;;;;;;;;8.15;56.15;97901.53;5085660;28;19928;-66
2022/10/30 09:15:59;;;;;;;;;;;;;;;8.16;56.22;97912.09;5085962;28;19928;-65
2022/10/30 09:18:25;;;;;;;;;;;;;;;8.08;56.31;97891.06;5084697;28;19928;-67
2022/10/30 09:20:51;;;;;;;;;;;;;;;8.01;56.13;97891.47;5085750;28;20031;-66
2022/10/30 09:23:17;;;;;;;;;;;;;;;7.98;55.83;97894.81;5087931;28;20411;-64
2022/10/30 09:25:45;;;;;;;;;;;;;;;7.86;55.69;97900.75;4719155;28;10000462;-63
2022/10/30 09:28:24;;;;;;;;;;;;;;;7.79;55.32;97892.97;5067889;28;20448;-64
2022/10/30 09:31:09;;;;;;;;;;;;;;;7.66;55.67;97886.44;5070381;28;19928;-64
2022/10/30 09:33:44;;;;;;;;;;;;;;;7.61;56.27;97886.56;5101461;28;20088;-64
2022/10/30 09:36:48;;;;;;;;;;;;;;;7.64;56.38;97887.84;5082527;28;20310;-64
2022/10/30 09:39:14;;;;;;;;;;;;;;;7.66;56.40;97864.69;5084019;28;19928;-64
2022/10/30 09:41:59;;;;;;;;;;;;;;;7.68;56.04;97871.72;5084983;28;20209;-66
2022/10/30 09:44:39;;;;;;;;;;;;;;;7.70;56.45;97874.94;5081244;28;19967;-66
2022/10/30 09:47:14;;;;;;;;;;;;;;;7.68;56.56;97877.19;5083011;28;19928;-63
2022/10/30 09:49:49;;;;;;;;;;;;;;;7.61;56.76;97859.34;5076012;28;19934;-66
2022/10/30 09:52:30;;;;;;;;;;;;;;;7.58;56.77;97879.00;5082928;28;19935;-63
2022/10/30 09:55:04;;;;;;;;;;;;;;;7.60;57.39;97873.25;5063481;28;20324;-63
2022/10/30 09:57:36;;;;;;;;;;;;;;;7.85;56.86;97880.09;5084486;28;19928;-66
2022/10/30 10:00:06;;;;;;;;;;;;;;;8.97;54.60;97879.78;5086793;28;20555;-66
2022/10/30 10:02:50;;;;;;;;;;;;;;;10.78;49.96;97854.75;5085338;28;20338;-66
2022/10/30 10:05:18;;;;;;;;;;;;;;;10.32;49.67;97859.69;5087371;28;20379;-63
2022/10/30 10:08:06;;;;;;;;;;;;;;;9.74;51.75;97866.03;5086193;28;19928;-64
2022/10/30 10:10:54;;;;;;;;;;;;;;;9.11;53.32;97862.53;5086293;28;19928;-63
2022/10/30 10:13:24;;;;;;;;;;;;;;;8.78;54.57;97858.97;5084924;28;20395;-64
2022/10/30 10:15:54;;;;;;;;;;;;;;;8.45;55.49;97853.75;5100853;28;20034;-63
2022/10/30 10:18:24;;;;;;;;;;;;;;;8.08;56.89;97852.94;5105234;28;19928;-63
2022/10/30 10:20:52;;;;;;;;;;;;;;;7.78;58.24;97856.00;5107628;28;19939;-64
2022/10/30 10:23:19;;;;;;;;;;;;;;;7.68;59.36;97858.94;5107726;28;20023;-64
2022/10/30 10:25:50;;;;;;;;;;;;;;;7.66;59.80;97850.28;5102010;28;19973;-64
2022/10/30 10:28:22;;;;;;;;;;;;;;;7.78;59.68;97858.72;5101364;28;19952;-63
2022/10/30 10:30:52;;;;;;;;;;;;;;;7.92;58.91;97857.91;5089568;28;19955;-63
2022/10/30 10:33:27;;;;;;;;;;;;;;;7.74;59.97;97855.00;5065239;28;20412;-65
2022/10/30 10:36:01;;;;;;;;;;;;;;;7.89;54.95;97831.31;5084854;28;19935;-64
2022/10/30 10:38:37;;;;;;;;;;;;;;;8.51;51.12;97843.56;5084119;28;20213;-63
2022/10/30 10:41:06;;;;;;;;;;;;;;;8.88;49.68;97843.50;5085268;28;19953;-63
2022/10/30 10:43:39;;;;;;;;;;;;;;;9.32;49.40;97841.81;5082166;28;19961;-64
2022/10/30 10:46:16;;;;;;;;;;;;;;;10.31;45.92;97858.91;5082737;28;19928;-64
2022/10/30 10:48:49;;;;;;;;;;;;;;;11.18;42.29;97829.88;5082336;28;20034;-63
2022/10/30 10:51:18;;;;;;;;;;;;;;;11.82;41.13;97832.00;5086269;28;19974;-63
2022/10/30 10:53:46;;;;;;;;;;;;;;;12.08;39.29;97826.38;5088404;28;19928;-64
2022/10/30 10:56:12;;;;;;;;;;;;;;;10.84;41.61;97836.22;5082281;28;19932;-64
2022/10/30 10:58:40;;;;;;;;;;;;;;;9.79;44.01;97846.75;5104628;28;19928;-63
2022/10/30 11:01:11;;;;;;;;;;;;;;;9.12;46.00;97829.53;5099227;28;20333;-64
2022/10/30 11:03:43;;;;;;;;;;;;;;;8.83;45.52;97838.19;5078280;28;19931;-64
2022/10/30 11:06:19;;;;;;;;;;;;;;;8.40;47.35;97840.25;5101222;28;20382;-64
2022/10/30 11:08:44;;;;;;;;;;;;;;;8.01;48.21;97842.47;5097662;28;20309;-64
2022/10/30 11:11:10;;;;;;;;;;;;;;;7.91;47.77;97850.84;5098595;28;19932;-65
2022/10/30 11:13:37;;;;;;;;;;;;;;;7.88;47.48;97841.41;5076236;28;19934;-64
2022/10/30 11:16:08;;;;;;;;;;;;;;;7.83;48.12;97859.75;5079920;28;19928;-64
2022/10/30 11:18:34;;;;;;;;;;;;;;;7.58;49.37;97857.25;5100091;28;19965;-63
2022/10/30 11:21:02;;;;;;;;;;;;;;;7.42;51.01;97859.44;5098196;28;19928;-64
2022/10/30 11:23:39;;;;;;;;;;;;;;;7.10;55.55;97885.59;5066506;28;19960;-64
2022/10/30 11:26:24;;;;;;;;;;;;;;;6.54;59.39;97898.97;5094874;28;19931;-66
2022/10/30 11:28:53;;;;;;;;;;;;;;;5.78;65.57;97907.81;5101048;28;19966;-67
2022/10/30 11:31:20;;;;;;;;;;;;;;;5.20;68.92;97917.63;5095550;28;19963;-63
2022/10/30 11:33:46;;;;;;;;;;;;;;;4.91;66.82;97892.16;5107335;28;19936;-63
2022/10/30 11:36:13;;;;;;;;;;;;;;;4.79;67.81;97906.06;5103240;28;19928;-63
2022/10/30 11:38:41;;;;;;;;;;;;;;;6.30;62.75;97910.72;5103017;28;20555;-63
2022/10/30 11:41:09;;;;;;;;;;;;;;;7.55;57.51;97895.13;5108417;28;20406;-64
2022/10/30 11:43:36;;;;;;;;;;;;;;;8.06;55.58;97910.41;5108602;28;20031;-64
2022/10/30 11:46:07;;;;;;;;;;;;;;;7.40;56.60;97923.38;5108421;28;19949;-64
2022/10/30 11:48:35;;;;;;;;;;;;;;;7.19;59.30;97921.03;5107541;28;19931;-64
2022/10/30 11:51:01;;;;;;;;;;;;;;;8.96;54.63;97921.00;5107177;28;19928;-63
2022/10/30 11:53:30;;;;;;;;;;;;;;;9.56;53.27;97914.25;5107268;28;19928;-64
2022/10/30 11:55:58;;;;;;;;;;;;;;;10.37;50.61;97914.16;4747550;27;10000581;-64
2022/10/30 11:58:26;;;;;;;;;;;;;;;10.78;49.31;97910.22;5101290;27;20420;-64
2022/10/30 12:00:58;;;;;;;;;;;;;;;11.02;48.08;97900.72;5102786;28;20027;-64
2022/10/30 12:03:26;;;;;;;;;;;;;;;11.66;46.34;97889.25;5091279;28;19934;-64
2022/10/30 12:06:05;;;;;;;;;;;;;;;11.84;43.40;97884.50;5106573;28;19928;-64
2022/10/30 12:08:31;;;;;;;;;;;;;;;12.01;41.66;97883.59;5089788;28;19928;-64
2022/10/30 12:11:00;;;;;;;;;;;;;;;12.14;41.56;97871.63;5107608;28;20331;-64
2022/10/30 12:13:27;;;;;;;;;;;;;;;12.10;40.12;97880.84;5087735;28;19934;-64
2022/10/30 12:16:03;;;;;;;;;;;;;;;12.02;40.85;97894.28;5095003;28;19935;-63
2022/10/30 12:18:29;;;;;;;;;;;;;;;12.15;40.11;97906.09;5085016;28;19932;-63
2022/10/30 12:20:56;;;;;;;;;;;;;;;11.68;39.95;97889.72;5083922;28;20005;-64
2022/10/30 12:23:24;;;;;;;;;;;;;;;11.34;41.33;97890.34;5087776;28;19928;-63
2022/10/30 12:25:51;;;;;;;;;;;;;;;11.01;42.36;97896.38;5088815;28;20310;-63
2022/10/30 12:28:20;;;;;;;;;;;;;;;9.74;43.82;97882.41;5087190;28;19935;-63
2022/10/30 12:30:49;;;;;;;;;;;;;;;8.38;46.78;97911.34;5084578;28;20325;-63
2022/10/30 12:33:17;;;;;;;;;;;;;;;7.29;49.54;97901.00;5098643;28;20303;-63
2022/10/30 12:35:45;;;;;;;;;;;;;;;6.55;51.71;97908.72;5085034;28;19955;-63
2022/10/30 12:38:14;;;;;;;;;;;;;;;6.12;53.87;97908.81;5087780;28;19928;-63
2022/10/30 12:40:43;;;;;;;;;;;;;;;5.95;53.40;97910.06;5088778;28;19928;-66
2022/10/30 12:43:12;;;;;;;;;;;;;;;5.77;54.47;97912.41;5101924;28;19967;-66
2022/10/30 12:45:42;;;;;;;;;;;;;;;5.72;55.30;97904.34;5104191;28;19931;-66
2022/10/30 12:48:13;;;;;;;;;;;;;;;5.77;55.63;97907.00;5097159;28;19935;-66
2022/10/30 12:50:42;;;;;;;;;;;;;;;5.84;56.20;97905.84;5085333;28;20019;-67
2022/10/30 12:53:18;;;;;;;;;;;;;;;5.82;55.71;97917.81;5068870;28;20023;-65
2022/10/30 12:55:47;;;;;;;;;;;;;;;5.85;56.28;97916.41;5077813;28;19928;-66
2022/10/30 12:58:18;;;;;;;;;;;;;;;5.85;57.73;97937.31;5089732;28;20433;-66
2022/10/30 13:00:50;;;;;;;;;;;;;;;5.57;58.81;97918.09;5052466;28;19928;-66
2022/10/30 13:03:24;;;;;;;;;;;;;;;5.15;60.77;97912.25;5080300;28;19928;-66
2022/10/30 13:05:53;;;;;;;;;;;;;;;4.88;62.51;97919.81;5079908;28;20399;-66
2022/10/30 13:08:21;;;;;;;;;;;;;;;4.73;63.16;97938.88;5085824;28;19970;-66